Time;durP1;ratioP1;P1;durP2;ratioP2;P2;SDS_P1;SDS_P2;PMS_P1;PMS_P2;Temp;Humidity;BMP_temperature;BMP_pressure;BME280_temperature;BME280_humidity;BME280_pressure;Samples;Min_cycle;Max_cycle;Signal;HPM_P1;HPM_P2
2022/04/29 00:00:54;;;;;;;14.70;7.83;;;;;;;;;;5053983;28;20622;-65
2022/04/29 00:03:22;;;;;;;26.57;14.60;;;;;;;;;;5054190;28;20200;-65
2022/04/29 00:05:49;;;;;;;15.97;9.43;;;;;;;;;;5054307;28;20301;-66
2022/04/29 00:08:17;;;;;;;23.53;13.40;;;;;;;;;;5054274;28;20206;-65
2022/04/29 00:10:44;;;;;;;17.53;10.50;;;;;;;;;;5053992;28;20635;-65
2022/04/29 00:13:13;;;;;;;13.13;7.03;;;;;;;;;;5054164;28;20200;-65
2022/04/29 00:15:41;;;;;;;69.10;37.50;;;;;;;;;;5054614;28;20208;-65
2022/04/29 00:18:08;;;;;;;114.23;58.20;;;;;;;;;;5057745;28;20208;-62
2022/04/29 00:20:36;;;;;;;70.53;36.33;;;;;;;;;;5057929;28;20207;-63
2022/04/29 00:23:03;;;;;;;44.33;23.47;;;;;;;;;;5057595;28;20532;-61
2022/04/29 00:25:30;;;;;;;56.73;27.57;;;;;;;;;;5057507;28;20224;-62
2022/04/29 00:27:58;;;;;;;98.23;38.97;;;;;;;;;;5057466;28;20196;-62
2022/04/29 00:30:25;;;;;;;57.33;24.07;;;;;;;;;;5057218;28;20204;-62
2022/04/29 00:32:53;;;;;;;37.43;17.27;;;;;;;;;;5057664;28;20211;-62
2022/04/29 00:35:20;;;;;;;18.70;11.23;;;;;;;;;;5056275;28;20650;-62
2022/04/29 00:37:50;;;;;;;13.80;7.60;;;;;;;;;;5057400;28;20658;-62
2022/04/29 00:40:20;;;;;;;8.87;6.27;;;;;;;;;;5057083;28;20204;-61
2022/04/29 00:42:47;;;;;;;17.30;8.13;;;;;;;;;;5057005;28;20208;-61
2022/04/29 00:45:17;;;;;;;17.20;8.30;;;;;;;;;;5056940;28;20561;-61
2022/04/29 00:47:45;;;;;;;18.73;9.97;;;;;;;;;;5057462;28;20215;-61
2022/04/29 00:50:15;;;;;;;16.37;10.23;;;;;;;;;;5057024;28;20634;-62
2022/04/29 00:52:47;;;;;;;14.00;8.07;;;;;;;;;;5056402;28;20204;-63
2022/04/29 00:55:15;;;;;;;13.03;8.37;;;;;;;;;;5056187;28;20223;-63
2022/04/29 00:58:06;;;;;;;23.20;15.73;;;;;;;;;;5056926;28;20212;-63
2022/04/29 01:00:35;;;;;;;21.70;12.37;;;;;;;;;;5040206;28;20559;-62
2022/04/29 01:03:04;;;;;;;17.73;10.97;;;;;;;;;;5056947;28;20228;-62
2022/04/29 01:05:33;;;;;;;17.77;10.00;;;;;;;;;;5055915;28;20224;-62
2022/04/29 01:08:01;;;;;;;24.20;14.57;;;;;;;;;;5056779;28;20219;-62
2022/04/29 01:10:28;;;;;;;17.23;10.57;;;;;;;;;;5056757;28;20266;-62
2022/04/29 01:13:01;;;;;;;14.20;7.93;;;;;;;;;;5056675;28;20223;-63
2022/04/29 01:15:29;;;;;;;10.80;6.77;;;;;;;;;;5056559;28;20212;-62
2022/04/29 01:17:59;;;;;;;9.57;6.83;;;;;;;;;;5039059;28;20510;-62
2022/04/29 01:20:31;;;;;;;10.63;6.70;;;;;;;;;;5055721;28;20208;-62
2022/04/29 01:22:58;;;;;;;9.80;6.90;;;;;;;;;;5055971;28;20204;-62
2022/04/29 01:25:26;;;;;;;12.17;6.37;;;;;;;;;;5055326;28;20646;-62
2022/04/29 01:27:55;;;;;;;12.63;7.00;;;;;;;;;;5055211;28;20220;-62
2022/04/29 01:30:23;;;;;;;13.97;8.53;;;;;;;;;;5055542;28;20204;-62
2022/04/29 01:32:53;;;;;;;10.47;7.37;;;;;;;;;;5055369;28;20257;-62
2022/04/29 01:35:20;;;;;;;9.80;6.43;;;;;;;;;;5056003;28;20627;-62
2022/04/29 01:37:48;;;;;;;9.53;6.23;;;;;;;;;;5055826;28;20211;-62
2022/04/29 01:40:16;;;;;;;11.90;6.33;;;;;;;;;;5054949;28;20596;-62
2022/04/29 01:42:44;;;;;;;12.70;6.27;;;;;;;;;;5055779;28;20207;-62
2022/04/29 01:45:12;;;;;;;12.83;5.70;;;;;;;;;;5055942;28;20222;-62
2022/04/29 01:48:05;;;;;;;8.70;6.03;;;;;;;;;;5034512;28;20213;-62
2022/04/29 01:50:56;;;;;;;9.70;6.40;;;;;;;;;;5017877;28;20207;-62
2022/04/29 01:53:23;;;;;;;11.63;6.60;;;;;;;;;;5034006;28;20240;-62
2022/04/29 01:55:50;;;;;;;12.50;8.07;;;;;;;;;;5017553;28;20204;-61
2022/04/29 01:58:18;;;;;;;10.50;7.57;;;;;;;;;;5017853;28;20216;-61
2022/04/29 02:00:46;;;;;;;11.80;7.07;;;;;;;;;;5017665;28;20228;-62
2022/04/29 02:03:13;;;;;;;12.00;6.57;;;;;;;;;;5034167;28;20200;-61
2022/04/29 02:05:41;;;;;;;12.13;7.97;;;;;;;;;;5017614;28;20204;-61
2022/04/29 02:08:08;;;;;;;12.50;8.07;;;;;;;;;;5034086;28;20235;-63
2022/04/29 02:10:36;;;;;;;12.43;6.87;;;;;;;;;;5017330;28;20643;-63
2022/04/29 02:13:03;;;;;;;12.10;6.80;;;;;;;;;;5017401;28;20239;-63
2022/04/29 02:15:39;;;;;;;8.80;6.40;;;;;;;;;;5018649;28;20207;-63
2022/04/29 02:18:11;;;;;;;8.50;6.50;;;;;;;;;;5033733;28;20227;-62
2022/04/29 02:20:38;;;;;;;12.37;7.17;;;;;;;;;;5033651;28;20208;-63
2022/04/29 02:23:06;;;;;;;10.37;7.43;;;;;;;;;;5017130;28;20271;-62
2022/04/29 02:25:33;;;;;;;9.57;5.60;;;;;;;;;;5049192;28;20529;-62
2022/04/29 02:28:00;;;;;;;10.53;7.40;;;;;;;;;;5054762;28;20215;-62
2022/04/29 02:30:27;;;;;;;12.70;7.97;;;;;;;;;;5054309;28;20204;-62
2022/04/29 02:32:54;;;;;;;16.20;8.30;;;;;;;;;;5053955;28;20214;-62
2022/04/29 02:35:21;;;;;;;12.63;8.20;;;;;;;;;;5054713;28;20215;-62
2022/04/29 02:37:49;;;;;;;10.60;7.37;;;;;;;;;;5053438;28;20615;-61
2022/04/29 02:40:16;;;;;;;14.00;7.33;;;;;;;;;;5053477;28;20273;-61
2022/04/29 02:42:43;;;;;;;9.67;6.97;;;;;;;;;;5053932;28;20227;-61
2022/04/29 02:45:11;;;;;;;12.50;7.43;;;;;;;;;;5053916;28;20208;-61
2022/04/29 02:47:44;;;;;;;10.10;6.73;;;;;;;;;;5053569;28;20697;-61
2022/04/29 02:50:11;;;;;;;12.67;6.50;;;;;;;;;;5054631;28;20247;-61
2022/04/29 02:52:47;;;;;;;10.13;5.67;;;;;;;;;;5053820;28;20211;-62
2022/04/29 02:55:14;;;;;;;8.77;5.70;;;;;;;;;;5053891;28;20235;-62
2022/04/29 02:58:02;;;;;;;12.53;5.83;;;;;;;;;;5047524;28;20635;-62
2022/04/29 03:00:29;;;;;;;9.63;5.87;;;;;;;;;;5053710;28;20258;-62
2022/04/29 03:02:56;;;;;;;8.03;6.07;;;;;;;;;;5053781;28;20212;-62
2022/04/29 03:05:23;;;;;;;9.97;5.87;;;;;;;;;;5053809;28;20216;-62
2022/04/29 03:07:50;;;;;;;9.57;6.17;;;;;;;;;;5053316;28;20247;-61
2022/04/29 03:10:18;;;;;;;10.00;6.70;;;;;;;;;;5053664;28;20200;-61
2022/04/29 03:12:45;;;;;;;13.83;8.13;;;;;;;;;;5054237;28;20204;-62
2022/04/29 03:15:20;;;;;;;19.93;9.57;;;;;;;;;;5053635;28;20198;-63
2022/04/29 03:20:43;;;;;;;18.27;9.83;;;;;;;;;;5053358;28;20203;-63
2022/04/29 03:23:12;;;;;;;16.67;8.90;;;;;;;;;;5053242;28;20235;-63
2022/04/29 03:25:44;;;;;;;13.57;8.07;;;;;;;;;;5053416;28;20213;-63
2022/04/29 03:28:11;;;;;;;17.73;9.47;;;;;;;;;;5053428;28;20219;-62
2022/04/29 03:30:38;;;;;;;11.37;7.30;;;;;;;;;;5053381;28;20204;-62
2022/04/29 03:33:08;;;;;;;13.60;8.00;;;;;;;;;;5037111;28;20646;-61
2022/04/29 03:35:47;;;;;;;18.87;11.07;;;;;;;;;;5053232;28;20537;-62
2022/04/29 03:38:22;;;;;;;15.27;9.87;;;;;;;;;;5038596;28;20207;-64
2022/04/29 03:40:50;;;;;;;20.87;10.37;;;;;;;;;;5040097;28;20216;-62
2022/04/29 03:43:21;;;;;;;20.20;11.70;;;;;;;;;;5033111;28;20299;-60
2022/04/29 03:45:50;;;;;;;18.70;11.70;;;;;;;;;;5032451;28;20299;-62
2022/04/29 03:51:34;;;;;;;16.97;9.73;;;;;;;;;;5056329;28;20231;-61
2022/04/29 03:54:02;;;;;;;18.53;10.20;;;;;;;;;;5056446;28;20227;-70
2022/04/29 03:56:30;;;;;;;21.53;13.90;;;;;;;;;;5055783;28;20288;-68
2022/04/29 03:58:57;;;;;;;23.57;14.27;;;;;;;;;;5047206;28;20236;-67
2022/04/29 04:01:25;;;;;;;14.43;10.43;;;;;;;;;;5028000;28;20229;-65
2022/04/29 04:03:57;;;;;;;15.63;8.70;;;;;;;;;;5029907;28;20217;-65
2022/04/29 04:09:10;;;;;;;11.17;8.57;;;;;;;;;;5034338;28;20213;-62
2022/04/29 04:11:37;;;;;;;14.43;8.00;;;;;;;;;;5033242;28;20654;-60
2022/04/29 04:14:08;;;;;;;13.27;7.17;;;;;;;;;;5032953;28;21857;-60
2022/04/29 04:16:45;;;;;;;14.90;8.10;;;;;;;;;;5021766;28;20710;-65
2022/04/29 04:19:13;;;;;;;14.10;9.03;;;;;;;;;;5024335;28;20224;-65
2022/04/29 04:21:40;;;;;;;15.20;9.10;;;;;;;;;;5049135;28;20225;-61
2022/04/29 04:24:08;;;;;;;15.33;9.23;;;;;;;;;;5016411;28;20234;-62
2022/04/29 04:26:36;;;;;;;14.77;8.23;;;;;;;;;;5063992;28;20220;-63
2022/04/29 04:29:07;;;;;;;12.40;8.40;;;;;;;;;;5056292;28;20219;-64
2022/04/29 04:31:38;;;;;;;14.77;8.37;;;;;;;;;;5055841;28;20224;-64
2022/04/29 04:36:55;;;;;;;12.43;7.70;;;;;;;;;;5056294;28;20605;-64
2022/04/29 04:39:24;;;;;;;12.43;7.90;;;;;;;;;;5055822;28;20224;-76
2022/04/29 04:41:56;;;;;;;13.43;7.67;;;;;;;;;;5054873;28;20236;-63
2022/04/29 04:44:34;;;;;;;15.23;8.47;;;;;;;;;;5055591;28;20235;-63
2022/04/29 04:47:03;;;;;;;16.85;9.57;;;;;;;;;;5054866;28;20239;-65
2022/04/29 04:50:05;;;;;;;15.13;9.38;;;;;;;;;;4994783;28;20238;-66
2022/04/29 04:52:33;;;;;;;15.80;9.80;;;;;;;;;;4994947;28;20332;-65
2022/04/29 04:55:06;;;;;;;21.50;10.82;;;;;;;;;;4994680;28;20257;-70
2022/04/29 04:57:35;;;;;;;17.03;10.97;;;;;;;;;;4975509;28;20242;-64
2022/04/29 05:00:03;;;;;;;15.52;9.82;;;;;;;;;;4959549;28;20238;-65
2022/04/29 05:02:51;;;;;;;13.63;9.07;;;;;;;;;;4974370;28;20270;-65
2022/04/29 05:05:36;;;;;;;14.63;9.40;;;;;;;;;;4975540;28;20226;-70
2022/04/29 05:08:09;;;;;;;15.95;8.98;;;;;;;;;;4959048;28;20238;-65
2022/04/29 05:10:36;;;;;;;14.82;9.48;;;;;;;;;;4959124;28;20227;-62
2022/04/29 05:13:03;;;;;;;14.32;9.75;;;;;;;;;;4958702;28;20227;-62
2022/04/29 05:15:32;;;;;;;14.98;9.20;;;;;;;;;;4959219;28;20227;-64
2022/04/29 05:18:01;;;;;;;14.73;9.20;;;;;;;;;;4958473;28;20401;-56
2022/04/29 05:20:31;;;;;;;13.48;8.27;;;;;;;;;;4975209;28;20234;-68
2022/04/29 05:22:58;;;;;;;12.50;8.25;;;;;;;;;;4959819;28;20245;-63
2022/04/29 05:25:28;;;;;;;9.48;6.82;;;;;;;;;;5014583;28;20340;-59
2022/04/29 05:28:14;;;;;;;14.65;7.25;;;;;;;;;;5015560;28;20252;-61
2022/04/29 05:31:00;;;;;;;9.77;6.25;;;;;;;;;;5015631;28;20236;-59
2022/04/29 05:33:46;;;;;;;7.75;6.20;;;;;;;;;;5014545;28;20225;-60
2022/04/29 05:36:36;;;;;;;13.52;6.38;;;;;;;;;;5015190;28;20240;-64
2022/04/29 05:42:14;;;;;;;11.23;6.28;;;;;;;;;;5031032;28;20233;-62
2022/04/29 05:44:42;;;;;;;8.85;5.50;;;;;;;;;;5015280;28;20233;-63
2022/04/29 05:47:11;;;;;;;10.15;5.60;;;;;;;;;;5030898;28;20730;-64
2022/04/29 05:49:38;;;;;;;11.88;5.97;;;;;;;;;;5030696;28;20243;-65
2022/04/29 05:52:08;;;;;;;12.32;6.18;;;;;;;;;;5031095;28;20229;-61
2022/04/29 05:54:38;;;;;;;9.98;5.43;;;;;;;;;;5030471;28;20221;-59
2022/04/29 05:57:11;;;;;;;11.35;6.60;;;;;;;;;;5046770;28;20232;-62
2022/04/29 05:59:39;;;;;;;11.43;5.43;;;;;;;;;;5054291;28;20235;-61
2022/04/29 06:02:31;;;;;;;57.78;14.48;;;;;;;;;;5055037;28;20231;-62
2022/04/29 06:05:09;;;;;;;8.98;5.30;;;;;;;;;;5054947;28;20560;-62
2022/04/29 06:07:38;;;;;;;11.05;5.63;;;;;;;;;;5037615;28;20556;-63
2022/04/29 06:10:06;;;;;;;7.95;5.03;;;;;;;;;;5053580;28;20242;-61
2022/04/29 06:12:42;;;;;;;5.95;4.57;;;;;;;;;;5053853;28;20704;-61
2022/04/29 06:15:17;;;;;;;6.13;4.93;;;;;;;;;;5053961;28;20286;-73
2022/04/29 06:18:23;;;;;;;8.77;4.90;;;;;;;;;;4993313;28;20225;-66
2022/04/29 06:20:50;;;;;;;9.40;4.60;;;;;;;;;;4993548;28;20608;-66
2022/04/29 06:23:36;;;;;;;6.97;4.75;;;;;;;;;;5030170;28;20313;-57
2022/04/29 06:26:03;;;;;;;9.75;5.10;;;;;;;;;;5050720;28;20228;-66
2022/04/29 06:28:35;;;;;;;8.73;5.15;;;;;;;;;;5033443;28;20622;-59
2022/04/29 06:31:05;;;;;;;8.95;4.93;;;;;;;;;;5033501;28;20569;-60
2022/04/29 06:33:36;;;;;;;8.00;4.72;;;;;;;;;;5033750;28;20328;-61
2022/04/29 06:36:06;;;;;;;6.30;3.40;;;;;;;;;;5033474;28;20236;-62
2022/04/29 06:38:33;;;;;;;8.10;3.83;;;;;;;;;;5034323;28;20232;-66
2022/04/29 06:41:21;;;;;;;5.05;3.33;;;;;;;;;;5003838;28;20236;-64
2022/04/29 06:44:10;;;;;;;5.93;3.42;;;;;;;;;;5033446;28;20230;-56
2022/04/29 06:46:41;;;;;;;5.10;2.90;;;;;;;;;;5034203;28;20221;-64
2022/04/29 06:49:27;;;;;;;5.15;2.95;;;;;;;;;;5033748;28;20243;-59
2022/04/29 06:52:23;;;;;;;3.67;2.63;;;;;;;;;;5014110;28;20228;-62
2022/04/29 06:55:09;;;;;;;4.55;2.85;;;;;;;;;;5022275;28;20217;-63
2022/04/29 06:57:37;;;;;;;4.57;3.35;;;;;;;;;;5022619;28;20547;-60
2022/04/29 07:00:05;;;;;;;7.57;3.42;;;;;;;;;;5031632;28;20216;-61
2022/04/29 07:02:33;;;;;;;7.13;3.72;;;;;;;;;;5031004;28;20251;-60
2022/04/29 07:05:02;;;;;;;7.00;3.83;;;;;;;;;;5032797;28;20295;-61
2022/04/29 07:07:29;;;;;;;4.82;3.65;;;;;;;;;;5031557;28;20709;-60
2022/04/29 07:10:15;;;;;;;7.68;3.90;;;;;;;;;;5030678;28;20220;-60
2022/04/29 07:13:03;;;;;;;9.20;4.10;;;;;;;;;;5019381;28;20311;-60
2022/04/29 07:15:31;;;;;;;5.38;4.18;;;;;;;;;;5033049;28;20232;-63
2022/04/29 07:18:11;;;;;;;7.07;3.97;;;;;;;;;;5033218;28;20290;-59
2022/04/29 07:20:39;;;;;;;7.95;3.85;;;;;;;;;;5033556;28;20244;-63
2022/04/29 07:23:06;;;;;;;8.05;3.55;;;;;;;;;;5033037;28;20233;-62
2022/04/29 07:25:34;;;;;;;5.80;3.33;;;;;;;;;;5033802;28;20228;-63
2022/04/29 07:28:01;;;;;;;5.63;3.45;;;;;;;;;;5056915;28;20231;-62
2022/04/29 07:30:29;;;;;;;5.07;3.42;;;;;;;;;;5023899;28;20270;-64
2022/04/29 07:33:09;;;;;;;7.70;3.80;;;;;;;;;;5037187;28;20265;-66
2022/04/29 07:41:45;;;;;;;5.50;3.35;;;;;;;;;;5016220;28;20253;-66
2022/04/29 07:44:15;;;;;;;7.20;3.72;;;;;;;;;;5017213;28;20233;-66
2022/04/29 07:46:47;;;;;;;4.57;3.35;;;;;;;;;;5016924;28;20225;-64
2022/04/29 07:49:24;;;;;;;4.75;3.55;;;;;;;;;;5017699;28;20229;-63
2022/04/29 07:51:52;;;;;;;5.35;3.03;;;;;;;;;;5016563;28;20751;-63
2022/04/29 07:54:20;;;;;;;5.20;3.28;;;;;;;;;;5016789;28;20236;-69
2022/04/29 07:56:48;;;;;;;9.40;3.20;;;;;;;;;;5016427;28;20247;-71
2022/04/29 07:59:17;;;;;;;4.60;3.17;;;;;;;;;;5016706;28;20241;-60
2022/04/29 08:01:45;;;;;;;5.88;3.58;;;;;;;;;;5017608;28;20232;-65
2022/04/29 08:04:15;;;;;;;6.10;3.08;;;;;;;;;;5022626;28;20225;-64
2022/04/29 08:06:42;;;;;;;13.57;3.65;;;;;;;;;;5052901;28;20800;-64
2022/04/29 08:09:31;;;;;;;5.45;3.65;;;;;;;;;;5035790;28;20633;-64
2022/04/29 08:12:07;;;;;;;4.03;3.00;;;;;;;;;;5036098;28;20606;-63
2022/04/29 08:14:34;;;;;;;6.03;3.55;;;;;;;;;;5022390;28;20240;-67
2022/04/29 08:17:34;;;;;;;4.95;3.22;;;;;;;;;;5035739;28;20228;-65
2022/04/29 08:20:02;;;;;;;7.10;3.90;;;;;;;;;;5025575;28;20236;-67
2022/04/29 08:22:42;;;;;;;7.07;2.97;;;;;;;;;;5048889;28;20239;-66
2022/04/29 08:25:10;;;;;;;4.30;3.38;;;;;;;;;;5025813;28;20239;-69
2022/04/29 08:27:39;;;;;;;6.35;3.30;;;;;;;;;;5051935;28;20658;-67
2022/04/29 08:30:08;;;;;;;4.38;3.28;;;;;;;;;;5055543;28;20227;-69
2022/04/29 08:32:45;;;;;;;7.07;3.40;;;;;;;;;;5056892;28;20235;-65
2022/04/29 08:35:34;;;;;;;4.57;3.28;;;;;;;;;;5055200;28;20561;-68
2022/04/29 08:38:01;;;;;;;6.65;3.30;;;;;;;;;;5054173;28;20248;-69
2022/04/29 08:40:43;;;;;;;4.15;3.08;;;;;;;;;;5044852;28;20359;-68
2022/04/29 08:43:13;;;;;;;6.50;3.20;;;;;;;;;;5035437;28;20580;-67
2022/04/29 08:45:43;;;;;;;4.82;3.67;;;;;;;;;;5044559;28;20651;-68
2022/04/29 08:48:29;;;;;;;5.82;3.75;;;;;;;;;;5016581;28;20325;-67
2022/04/29 08:50:57;;;;;;;7.55;3.78;;;;;;;;;;5028210;28;20662;-68
2022/04/29 08:53:24;;;;;;;6.75;4.25;;;;;;;;;;5056447;28;20220;-68
2022/04/29 08:58:37;;;;;;;7.85;4.00;;;;;;;;;;5057009;28;20199;-65
2022/04/29 09:01:09;;;;;;;5.03;3.80;;;;;;;;;;5056965;28;20333;-67
2022/04/29 09:03:38;;;;;;;5.80;4.53;;;;;;;;;;5049091;28;20585;-65
2022/04/29 09:06:06;;;;;;;5.90;3.92;;;;;;;;;;5034836;28;20224;-67
2022/04/29 09:08:41;;;;;;;5.93;3.97;;;;;;;;;;5026012;28;20230;-65
2022/04/29 09:11:11;;;;;;;8.13;3.80;;;;;;;;;;5015891;28;20252;-65
2022/04/29 09:13:39;;;;;;;6.03;3.78;;;;;;;;;;5029392;28;20296;-67
2022/04/29 09:16:10;;;;;;;5.35;3.47;;;;;;;;;;5036182;28;20291;-67
2022/04/29 09:18:42;;;;;;;6.10;3.78;;;;;;;;;;5036243;28;20208;-65
2022/04/29 09:21:13;;;;;;;6.20;4.05;;;;;;;;;;5036655;28;20213;-65
2022/04/29 09:23:47;;;;;;;7.15;3.78;;;;;;;;;;5036546;28;20204;-65
2022/04/29 09:26:35;;;;;;;7.57;3.60;;;;;;;;;;5036669;28;20212;-65
2022/04/29 09:29:21;;;;;;;4.10;3.22;;;;;;;;;;5036042;28;20237;-65
2022/04/29 09:32:13;;;;;;;4.00;3.08;;;;;;;;;;5020538;28;20264;-65
2022/04/29 09:34:54;;;;;;;6.20;3.60;;;;;;;;;;5024346;28;20683;-65
2022/04/29 09:37:26;;;;;;;6.95;3.30;;;;;;;;;;5025772;28;20212;-66
2022/04/29 09:40:03;;;;;;;7.20;3.75;;;;;;;;;;5016329;28;20644;-66
2022/04/29 09:42:38;;;;;;;4.78;3.00;;;;;;;;;;5016203;28;20292;-67
2022/04/29 09:45:21;;;;;;;3.55;2.67;;;;;;;;;;5014902;28;20272;-67
2022/04/29 09:47:56;;;;;;;9.88;2.50;;;;;;;;;;5016195;28;20221;-64
2022/04/29 09:50:48;;;;;;;5.00;2.40;;;;;;;;;;5031243;28;20233;-62
2022/04/29 09:53:16;;;;;;;4.05;2.83;;;;;;;;;;5026198;28;20604;-62
2022/04/29 09:56:07;;;;;;;6.40;3.00;;;;;;;;;;5015913;28;20208;-61
2022/04/29 09:58:34;;;;;;;5.25;3.10;;;;;;;;;;5016176;28;20206;-62
2022/04/29 10:01:04;;;;;;;4.18;3.15;;;;;;;;;;5014521;28;20517;-61
2022/04/29 10:03:33;;;;;;;3.58;2.85;;;;;;;;;;5016311;28;20219;-61
2022/04/29 10:06:06;;;;;;;3.53;3.05;;;;;;;;;;5015712;28;20367;-62
2022/04/29 10:08:35;;;;;;;6.43;3.47;;;;;;;;;;5015995;28;20644;-62
2022/04/29 10:11:02;;;;;;;4.57;3.50;;;;;;;;;;5015792;28;20587;-61
2022/04/29 10:13:32;;;;;;;4.60;3.50;;;;;;;;;;5016172;28;20213;-61
2022/04/29 10:16:11;;;;;;;8.88;3.97;;;;;;;;;;5044206;28;20522;-64
2022/04/29 10:22:21;;;;;;;6.78;3.55;;;;;;;;;;5015185;28;20504;-61
2022/04/29 10:24:48;;;;;;;6.32;3.40;;;;;;;;;;5015720;28;20201;-61
2022/04/29 10:27:15;;;;;;;4.45;3.20;;;;;;;;;;5047464;28;20201;-61
2022/04/29 10:29:43;;;;;;;4.65;3.25;;;;;;;;;;5014393;28;20562;-62
2022/04/29 10:32:11;;;;;;;6.03;3.28;;;;;;;;;;5025424;28;20204;-60
2022/04/29 10:34:38;;;;;;;5.80;3.58;;;;;;;;;;5034900;28;20296;-60
2022/04/29 10:37:11;;;;;;;6.65;3.85;;;;;;;;;;5014962;28;20617;-60
2022/04/29 10:39:42;;;;;;;7.55;3.50;;;;;;;;;;5015477;28;20194;-61
2022/04/29 10:42:09;;;;;;;6.43;3.50;;;;;;;;;;5062212;28;20639;-62
2022/04/29 10:45:01;;;;;;;4.90;3.60;;;;;;;;;;5034061;28;20628;-60
2022/04/29 10:47:40;;;;;;;4.63;3.30;;;;;;;;;;5027926;28;20699;-60
2022/04/29 10:50:34;;;;;;;7.22;3.28;;;;;;;;;;5033069;28;20298;-60
2022/04/29 10:53:25;;;;;;;8.68;2.90;;;;;;;;;;5045123;28;20254;-62
2022/04/29 10:56:30;;;;;;;5.35;3.08;;;;;;;;;;5054018;28;20231;-61
2022/04/29 10:59:03;;;;;;;5.50;3.08;;;;;;;;;;5054397;28;20210;-62
2022/04/29 11:01:34;;;;;;;4.88;2.97;;;;;;;;;;5042710;28;20205;-62
2022/04/29 11:04:04;;;;;;;4.47;3.38;;;;;;;;;;5030210;28;20616;-61
2022/04/29 11:06:41;;;;;;;8.85;3.88;;;;;;;;;;5053455;28;20689;-64
2022/04/29 11:09:30;;;;;;;5.90;3.58;;;;;;;;;;5054174;28;20329;-64
2022/04/29 11:11:59;;;;;;;5.47;3.58;;;;;;;;;;5053818;28;20232;-60
2022/04/29 11:15:08;;;;;;;6.85;3.50;;;;;;;;;;5014696;28;20243;-61
2022/04/29 11:18:20;;;;;;;4.10;2.90;;;;;;;;;;5017716;28;20229;-60
2022/04/29 11:20:50;;;;;;;5.93;3.15;;;;;;;;;;5014234;28;20283;-60
2022/04/29 11:26:17;;;;;;;5.45;2.95;;;;;;;;;;5034126;28;20560;-61
2022/04/29 11:28:52;;;;;;;4.97;3.08;;;;;;;;;;5032888;28;20232;-61
2022/04/29 11:31:41;;;;;;;4.45;2.85;;;;;;;;;;5032448;28;20227;-61
2022/04/29 11:34:10;;;;;;;6.47;3.50;;;;;;;;;;5032896;28;20641;-63
2022/04/29 11:36:38;;;;;;;6.65;3.33;;;;;;;;;;5033767;28;20530;-61
2022/04/29 11:39:23;;;;;;;11.00;3.67;;;;;;;;;;5023911;28;20229;-67
2022/04/29 11:41:55;;;;;;;5.57;3.50;;;;;;;;;;5014071;28;20236;-60
2022/04/29 11:44:40;;;;;;;10.38;4.93;;;;;;;;;;5013147;28;20321;-61
2022/04/29 11:47:08;;;;;;;8.10;3.80;;;;;;;;;;5023208;28;20223;-60
2022/04/29 11:49:41;;;;;;;4.95;3.13;;;;;;;;;;5052876;28;20235;-61
2022/04/29 11:52:30;;;;;;;5.63;3.20;;;;;;;;;;5050206;28;20787;-62
2022/04/29 11:55:14;;;;;;;5.03;3.65;;;;;;;;;;5031806;28;20231;-63
2022/04/29 11:57:46;;;;;;;5.03;2.33;;;;;;;;;;5033334;28;20682;-63
2022/04/29 12:00:24;;;;;;;3.38;2.53;;;;;;;;;;5033664;28;20243;-63
2022/04/29 12:02:53;;;;;;;6.32;2.60;;;;;;;;;;5032750;28;20252;-63
2022/04/29 12:05:24;;;;;;;5.15;2.50;;;;;;;;;;5033301;28;20686;-62
2022/04/29 12:07:52;;;;;;;6.43;2.92;;;;;;;;;;5033328;28;20225;-59
2022/04/29 12:10:32;;;;;;;4.90;2.90;;;;;;;;;;5033912;28;20240;-60
2022/04/29 12:13:00;;;;;;;5.28;2.47;;;;;;;;;;5036941;28;20235;-62
2022/04/29 12:15:32;;;;;;;7.85;2.70;;;;;;;;;;5036618;28;20691;-65
2022/04/29 12:18:01;;;;;;;5.85;2.60;;;;;;;;;;5048134;28;20706;-62
2022/04/29 12:20:40;;;;;;;3.88;2.47;;;;;;;;;;5055723;28;20224;-65
2022/04/29 12:23:11;;;;;;;6.35;3.03;;;;;;;;;;5057024;28;20263;-63
2022/04/29 12:25:44;;;;;;;6.10;2.58;;;;;;;;;;5056439;28;20557;-65
2022/04/29 12:28:35;;;;;;;4.43;2.60;;;;;;;;;;5055885;28;20246;-63
2022/04/29 12:36:52;;;;;;;4.88;2.33;;;;;;;;;;5056693;28;20531;-63
2022/04/29 12:39:33;;;;;;;4.47;2.30;;;;;;;;;;5057200;28;20574;-63
2022/04/29 12:42:08;;;;;;;4.28;3.30;;;;;;;;;;5057002;28;20196;-63
2022/04/29 12:47:53;;;;;;;7.03;3.97;;;;;;;;;;5056785;28;20208;-63
2022/04/29 12:50:28;;;;;;;4.97;3.20;;;;;;;;;;5057238;28;20232;-63
2022/04/29 12:53:02;;;;;;;4.82;3.22;;;;;;;;;;5056759;28;20602;-66
2022/04/29 12:55:38;;;;;;;5.65;3.17;;;;;;;;;;5049460;28;20189;-67
2022/04/29 12:58:15;;;;;;;5.93;3.40;;;;;;;;;;5037022;28;20180;-65
2022/04/29 13:01:02;;;;;;;3.92;3.28;;;;;;;;;;5036704;28;20512;-64
2022/04/29 13:03:34;;;;;;;6.60;3.22;;;;;;;;;;5034954;28;20250;-66
2022/04/29 13:06:11;;;;;;;6.97;4.20;;;;;;;;;;5034558;28;20193;-64
2022/04/29 13:08:39;;;;;;;7.20;3.80;;;;;;;;;;5035608;28;20274;-66
2022/04/29 13:11:06;;;;;;;5.10;4.05;;;;;;;;;;5036535;28;20247;-64
2022/04/29 13:13:33;;;;;;;6.60;4.20;;;;;;;;;;5036407;28;20287;-63
2022/04/29 13:16:05;;;;;;;5.82;3.70;;;;;;;;;;5035829;28;20197;-63
2022/04/29 13:18:35;;;;;;;8.30;4.13;;;;;;;;;;5035863;28;20227;-63
2022/04/29 13:21:07;;;;;;;8.38;4.35;;;;;;;;;;5036318;28;20227;-63
2022/04/29 13:23:39;;;;;;;4.80;3.25;;;;;;;;;;5034882;28;20195;-62
2022/04/29 13:26:13;;;;;;;5.18;4.28;;;;;;;;;;5036125;28;20189;-61
2022/04/29 13:28:41;;;;;;;5.05;3.72;;;;;;;;;;5036086;28;20643;-61
2022/04/29 13:31:08;;;;;;;7.05;4.07;;;;;;;;;;5036376;28;20266;-62
2022/04/29 13:33:36;;;;;;;4.93;3.50;;;;;;;;;;5035848;28;20216;-62
2022/04/29 13:36:04;;;;;;;6.13;3.80;;;;;;;;;;5036245;28;20255;-62
2022/04/29 13:38:32;;;;;;;7.78;3.85;;;;;;;;;;5035360;28;20260;-61
2022/04/29 13:41:00;;;;;;;5.82;3.80;;;;;;;;;;5019286;28;20200;-62
2022/04/29 13:43:28;;;;;;;4.97;3.63;;;;;;;;;;5036035;28;20299;-61
2022/04/29 13:46:15;;;;;;;8.35;4.03;;;;;;;;;;5035792;28;20201;-61
2022/04/29 13:48:43;;;;;;;4.57;3.60;;;;;;;;;;5034832;28;20248;-61
2022/04/29 13:51:10;;;;;;;5.90;4.07;;;;;;;;;;5035999;28;20219;-61
2022/04/29 13:53:38;;;;;;;6.25;3.53;;;;;;;;;;5034281;28;20201;-62
2022/04/29 13:56:05;;;;;;;4.13;3.45;;;;;;;;;;5016146;28;20213;-62
2022/04/29 13:58:33;;;;;;;4.57;3.72;;;;;;;;;;5016043;28;20240;-62
2022/04/29 14:01:00;;;;;;;9.25;3.83;;;;;;;;;;5015145;28;20205;-62
2022/04/29 14:03:27;;;;;;;4.55;3.67;;;;;;;;;;5015764;28;20219;-62
2022/04/29 14:05:54;;;;;;;5.47;3.85;;;;;;;;;;5015114;28;20216;-62
2022/04/29 14:08:22;;;;;;;5.80;3.55;;;;;;;;;;5015329;28;20205;-61
2022/04/29 14:10:49;;;;;;;5.60;4.20;;;;;;;;;;5015833;28;20287;-62
2022/04/29 14:13:18;;;;;;;7.70;4.30;;;;;;;;;;5047401;28;20223;-61
2022/04/29 14:15:46;;;;;;;6.53;4.28;;;;;;;;;;5015668;28;20263;-60
2022/04/29 14:18:14;;;;;;;6.28;3.97;;;;;;;;;;5017976;28;20213;-61
2022/04/29 14:20:41;;;;;;;8.98;3.95;;;;;;;;;;5034385;28;20232;-61
2022/04/29 14:23:09;;;;;;;8.23;3.40;;;;;;;;;;5041473;28;20232;-61
2022/04/29 14:25:36;;;;;;;4.43;3.50;;;;;;;;;;5046178;28;20229;-61
2022/04/29 14:28:04;;;;;;;4.40;3.20;;;;;;;;;;5024725;28;20232;-63
2022/04/29 14:30:31;;;;;;;5.15;3.38;;;;;;;;;;5054333;28;20717;-60
2022/04/29 14:32:58;;;;;;;8.55;4.05;;;;;;;;;;5041603;28;20223;-60
2022/04/29 14:35:25;;;;;;;5.57;3.75;;;;;;;;;;5038048;28;20270;-59
2022/04/29 14:37:52;;;;;;;5.88;4.03;;;;;;;;;;5034229;28;20247;-60
2022/04/29 14:40:19;;;;;;;5.82;3.55;;;;;;;;;;5034644;28;20224;-60
2022/04/29 14:42:47;;;;;;;7.32;3.60;;;;;;;;;;5016440;28;20738;-49
2022/04/29 14:45:14;;;;;;;6.50;3.83;;;;;;;;;;5020823;28;20608;-59
2022/04/29 14:47:41;;;;;;;6.85;3.60;;;;;;;;;;5034275;28;20216;-59
2022/04/29 14:50:09;;;;;;;5.05;4.18;;;;;;;;;;5033084;28;20247;-60
2022/04/29 14:52:37;;;;;;;5.47;4.10;;;;;;;;;;5034104;28;20239;-60
2022/04/29 14:55:05;;;;;;;8.85;4.30;;;;;;;;;;5013958;28;20233;-64
2022/04/29 14:57:34;;;;;;;4.82;3.88;;;;;;;;;;5015186;28;20311;-62
2022/04/29 15:00:02;;;;;;;6.78;3.67;;;;;;;;;;5014115;28;20233;-60
2022/04/29 15:02:30;;;;;;;5.63;3.90;;;;;;;;;;5014536;28;20671;-59
2022/04/29 15:04:57;;;;;;;5.47;3.83;;;;;;;;;;5013434;28;20233;-59
2022/04/29 15:07:25;;;;;;;7.07;4.40;;;;;;;;;;5014295;28;20691;-61
2022/04/29 15:15:38;;;;;;;4.60;3.70;;;;;;;;;;5013894;28;20229;-60
2022/04/29 15:18:07;;;;;;;5.60;4.20;;;;;;;;;;5013501;28;20245;-61
2022/04/29 15:20:36;;;;;;;6.90;4.28;;;;;;;;;;5014400;28;20253;-59
2022/04/29 15:23:04;;;;;;;7.75;4.03;;;;;;;;;;5033944;28;20232;-59
2022/04/29 15:25:33;;;;;;;7.65;4.20;;;;;;;;;;5033774;28;20236;-61
2022/04/29 15:28:01;;;;;;;8.02;3.97;;;;;;;;;;5033857;28;20217;-59
2022/04/29 15:30:55;;;;;;;7.95;4.03;;;;;;;;;;5023461;28;20249;-61
2022/04/29 15:33:25;;;;;;;5.38;3.50;;;;;;;;;;5012534;28;20761;-58
2022/04/29 15:35:52;;;;;;;8.65;4.45;;;;;;;;;;5051052;28;20330;-60
2022/04/29 15:38:19;;;;;;;12.88;8.10;;;;;;;;;;5053753;28;20307;-59
2022/04/29 15:40:47;;;;;;;13.30;7.43;;;;;;;;;;5038271;28;20239;-62
2022/04/29 15:43:17;;;;;;;8.63;4.68;;;;;;;;;;5033725;28;20231;-61
2022/04/29 15:45:48;;;;;;;10.57;6.18;;;;;;;;;;5034374;28;20229;-64
2022/04/29 15:48:15;;;;;;;10.77;6.25;;;;;;;;;;5037227;28;20247;-64
2022/04/29 15:50:44;;;;;;;12.43;6.60;;;;;;;;;;5036820;28;20306;-61
2022/04/29 15:53:12;;;;;;;14.32;6.50;;;;;;;;;;5037709;28;20286;-63